KNTD/NTD METAR and TAF weather

Enter ICAO airport designator
Station Type Date Time Source
KNTD METAR 2019/08/22 04:57 UTC NOAA

KNTD 220457Z 00000KT 10SM CLR 17/16 A2976 RMK AO2 SLP078 T01720156 $


Station Type Date Time Source
KNTD Decoded METAR 2019/08/22 04:57 UTC NOAA

Station name not available
Aug 22, 2019 - 12:57 AM EDT / 2019.08.22 0457 UTC
Wind: Calm:0
Visibility: 10 mile(s):0
Sky conditions: clear
Temperature: 63.0 F (17.2 C)
Dew Point: 60.1 F (15.6 C)
Relative Humidity: 90%
Pressure (altimeter): 29.76 in. Hg (1007 hPa)
ob: KNTD 220457Z 00000KT 10SM CLR 17/16 A2976 RMK AO2 SLP078 T01720156
cycle: 5

Station Type Date Time Source
KNTD TAF 2019/08/21 23:09 UTC NOAA

TAF KNTD 2123/2223 26009KT 9999 SKC QNH2974INS
FM220300 VRB04KT 9999 SKC QNH2972INS
FM221800 26009KT 9999 FEW280 QNH2976INS AUTOMATED SENSOR METWATCH 2206 TIL 2213 T14/2211Z T23/2221Z FS30083

Example: see airport list